Time;durP1;ratioP1;P1;durP2;ratioP2;P2;SDS_P1;SDS_P2;PMS_P1;PMS_P2;Temp;Humidity;BMP_temperature;BMP_pressure;BME280_temperature;BME280_humidity;BME280_pressure;Samples;Min_cycle;Max_cycle;Signal;HPM_P1;HPM_P2
2021/08/30 00:01:51;;;;;;;10.35;9.45;;;;;;;22.53;73.26;100053.41;5029615;27;102558;-48
2021/08/30 00:04:18;;;;;;;10.18;9.18;;;;;;;22.53;73.37;100049.84;5027049;27;102228;-48
2021/08/30 00:06:45;;;;;;;10.50;9.50;;;;;;;22.53;73.34;100050.63;5029557;27;102546;-50
2021/08/30 00:09:12;;;;;;;63.60;15.55;;;;;;;22.53;73.25;100050.63;5025924;28;103793;-48
2021/08/30 00:11:40;;;;;;;;;;;;;;;22.53;73.46;100044.28;5030401;28;101987;-48
2021/08/30 00:14:08;;;;;;;10.90;9.90;;;;;;;22.53;73.34;100044.28;5029765;27;102523;-48
2021/08/30 00:16:35;;;;;;;10.77;9.77;;;;;;;22.52;73.54;100034.38;5012401;28;102268;-48
2021/08/30 00:19:02;;;;;;;13.18;9.43;;;;;;;22.53;73.44;100030.44;5027627;27;103891;-49
2021/08/30 00:21:28;;;;;;;36.13;11.25;;;;;;;22.53;73.23;100033.19;5028660;27;102486;-47
2021/08/30 00:23:55;;;;;;;10.95;9.98;;;;;;;22.52;73.36;100031.59;5026194;28;102425;-47
2021/08/30 00:26:25;;;;;;;13.90;9.80;;;;;;;22.52;73.37;100037.16;5029788;28;102166;-47
2021/08/30 00:28:51;;;;;;;10.60;9.60;;;;;;;22.51;73.33;100036.34;5025647;27;103956;-48
2021/08/30 00:31:25;;;;;;;11.05;9.90;;;;;;;22.52;73.39;100026.06;5029985;27;103163;-47
2021/08/30 00:33:52;;;;;;;10.75;9.45;;;;;;;22.52;73.38;100031.59;5028890;28;102630;-48
2021/08/30 00:36:19;;;;;;;27.05;10.05;;;;;;;22.52;73.39;100031.59;5030569;28;102186;-48
2021/08/30 00:38:46;;;;;;;12.98;9.50;;;;;;;22.52;73.47;100037.16;5029205;27;103893;-48
2021/08/30 00:41:14;;;;;;;;;;;;;;;22.52;73.48;100037.16;5027253;27;102496;-47
2021/08/30 00:43:40;;;;;;;10.93;9.85;;;;;;;22.51;73.26;100036.34;5029907;28;102150;-49
2021/08/30 00:46:07;;;;;;;10.82;9.80;;;;;;;22.51;73.58;100039.13;5025431;27;102226;-48
2021/08/30 00:48:35;;;;;;;11.02;9.90;;;;;;;22.51;73.31;100041.09;5026172;28;104143;-48
2021/08/30 00:51:02;;;;;;;14.07;10.60;;;;;;;22.52;73.44;100048.25;5026620;27;102607;-47
2021/08/30 00:53:28;;;;;;;10.32;9.32;;;;;;;22.52;73.46;100042.69;5024430;27;102395;-48
2021/08/30 00:55:55;;;;;;;10.57;9.52;;;;;;;22.51;73.44;100035.56;5027279;28;102638;-48
2021/08/30 00:58:22;;;;;;;10.63;9.52;;;;;;;22.51;73.42;100030.81;5026443;27;103947;-48
2021/08/30 01:00:50;;;;;;;10.65;9.73;;;;;;;22.51;73.38;100027.25;5024733;27;102530;-48
2021/08/30 01:03:17;;;;;;;10.23;9.33;;;;;;;22.51;73.32;100030.00;5029099;27;102296;-48
2021/08/30 01:05:49;;;;;;;10.73;9.63;;;;;;;22.51;73.48;100032.78;5030320;28;102309;-48
2021/08/30 01:08:21;;;;;;;10.00;9.10;;;;;;;22.51;73.55;100035.56;5028356;27;103662;-48
2021/08/30 01:10:53;;;;;;;10.20;9.32;;;;;;;22.51;73.58;100043.88;5027161;27;102554;-48
2021/08/30 01:13:28;;;;;;;10.60;9.30;;;;;;;22.51;73.47;100041.09;5029911;28;102512;-47
2021/08/30 01:15:56;;;;;;;10.75;9.75;;;;;;;22.51;73.53;100041.91;5018584;27;102541;-47
2021/08/30 01:18:25;;;;;;;11.20;9.40;;;;;;;22.51;73.50;100035.56;5027185;27;103641;-48
2021/08/30 01:21:17;;;;;;;10.10;9.20;;;;;;;22.51;73.67;100032.78;5025851;27;102372;-48
2021/08/30 01:23:46;;;;;;;10.85;9.85;;;;;;;22.51;73.52;100035.56;5031779;27;102387;-48
2021/08/30 01:26:15;;;;;;;11.73;9.80;;;;;;;22.50;73.61;100039.47;5022750;27;102578;-48
2021/08/30 01:29:01;;;;;;;10.38;9.40;;;;;;;22.51;73.90;100043.88;5024669;27;104050;-48
2021/08/30 01:31:37;;;;;;;11.60;9.88;;;;;;;22.51;73.58;100046.66;5027854;27;102898;-48
2021/08/30 01:34:05;;;;;;;11.48;10.30;;;;;;;22.50;73.49;100045.84;5019837;27;102682;-47
2021/08/30 01:36:34;;;;;;;11.15;9.10;;;;;;;22.50;73.76;100040.31;5027903;28;102279;-48
2021/08/30 01:39:01;;;;;;;12.00;10.55;;;;;;;22.50;73.53;100043.06;5026389;28;103958;-50
2021/08/30 01:41:30;;;;;;;10.88;9.77;;;;;;;22.51;73.57;100046.66;5025931;27;102051;-47
2021/08/30 01:43:58;;;;;;;11.13;10.10;;;;;;;22.51;73.57;100046.66;5026606;28;102306;-48
2021/08/30 01:46:25;;;;;;;10.83;9.83;;;;;;;22.51;73.57;100052.19;5020638;27;102592;-47
2021/08/30 01:48:53;;;;;;;11.93;9.82;;;;;;;22.50;73.68;100045.84;5022456;27;103843;-48
2021/08/30 01:51:24;;;;;;;11.13;10.05;;;;;;;22.50;73.79;100045.03;5026091;27;102327;-48
2021/08/30 01:53:53;;;;;;;10.63;9.63;;;;;;;22.51;73.59;100046.66;5028591;28;102542;-48
2021/08/30 01:56:20;;;;;;;;;;;;;;;22.50;73.84;100042.25;5026476;27;102366;-48
2021/08/30 02:01:35;;;;;;;11.10;9.90;;;;;;;22.50;73.84;100043.06;5021631;27;102549;-49
2021/08/30 02:04:03;;;;;;;10.93;9.82;;;;;;;22.50;73.72;100039.47;5017939;27;102481;-48
2021/08/30 02:06:31;;;;;;;10.70;9.60;;;;;;;22.50;73.62;100039.47;5024019;27;102561;-48
2021/08/30 02:09:00;;;;;;;10.50;9.57;;;;;;;22.50;73.73;100043.06;5027773;28;103802;-48
2021/08/30 02:11:36;;;;;;;11.43;10.23;;;;;;;22.51;73.88;100041.09;5023533;27;105322;-48
2021/08/30 02:14:07;;;;;;;11.30;10.20;;;;;;;22.49;73.52;100041.44;5026440;28;102142;-48
2021/08/30 02:16:35;;;;;;;11.10;10.00;;;;;;;22.50;73.71;100039.47;5026743;27;102653;-47
2021/08/30 02:19:12;;;;;;;10.82;9.82;;;;;;;22.50;73.78;100040.31;5026288;27;104232;-48
2021/08/30 02:21:43;;;;;;;10.57;9.55;;;;;;;22.50;73.75;100039.47;5030989;27;102308;-48
2021/08/30 02:24:15;;;;;;;11.63;10.43;;;;;;;22.49;73.69;100043.44;5024907;27;102635;-48
2021/08/30 02:26:46;;;;;;;10.90;9.80;;;;;;;22.50;73.79;100045.03;5026450;27;102458;-48
2021/08/30 02:29:16;;;;;;;11.68;10.48;;;;;;;22.49;73.70;100058.09;5026120;28;102781;-48
2021/08/30 02:31:48;;;;;;;11.75;10.55;;;;;;;22.49;73.72;100060.84;5024955;27;102482;-48
2021/08/30 02:34:19;;;;;;;11.43;10.23;;;;;;;22.50;73.70;100067.19;5025650;27;102963;-48
2021/08/30 02:36:48;;;;;;;11.18;10.07;;;;;;;22.49;73.72;100066.41;5027989;27;102752;-48
2021/08/30 02:39:16;;;;;;;11.93;10.73;;;;;;;22.49;73.84;100071.16;5019064;28;104111;-47
2021/08/30 02:41:43;;;;;;;12.50;11.30;;;;;;;22.50;73.63;100072.75;5025059;27;103191;-47
2021/08/30 02:44:11;;;;;;;11.45;10.38;;;;;;;22.49;73.93;100069.19;5027485;27;102681;-47
2021/08/30 02:46:40;;;;;;;12.52;11.23;;;;;;;22.50;73.57;100072.75;5016644;27;102574;-48
2021/08/30 02:49:07;;;;;;;11.60;10.40;;;;;;;22.50;73.83;100067.19;5007050;28;103713;-47
2021/08/30 02:51:34;;;;;;;11.93;10.23;;;;;;;22.49;73.74;100060.06;5025353;27;102780;-48
2021/08/30 02:54:03;;;;;;;11.10;9.93;;;;;;;22.49;73.83;100069.19;5009052;27;102402;-48
2021/08/30 02:56:31;;;;;;;11.75;10.55;;;;;;;22.50;73.69;100072.75;5032148;27;105355;-48
2021/08/30 02:58:59;;;;;;;11.82;10.43;;;;;;;22.49;73.78;100071.16;5031665;28;103880;-48
2021/08/30 03:01:26;;;;;;;12.70;11.25;;;;;;;22.49;73.85;100082.25;5033856;28;102158;-49
2021/08/30 03:03:55;;;;;;;12.85;11.65;;;;;;;22.51;73.95;100066.06;5042221;27;102040;-48
2021/08/30 03:06:23;;;;;;;11.63;10.43;;;;;;;22.50;73.62;100072.75;5042335;27;102136;-47
2021/08/30 03:08:50;;;;;;;12.13;10.93;;;;;;;22.49;73.88;100071.94;5044194;28;102985;-48
2021/08/30 03:11:21;;;;;;;11.80;10.68;;;;;;;22.50;73.88;100078.28;5038756;28;102130;-50
2021/08/30 03:13:49;;;;;;;11.55;10.45;;;;;;;22.49;73.80;100079.47;5023311;27;102587;-48
2021/08/30 03:16:29;;;;;;;11.45;10.35;;;;;;;22.49;73.90;100083.03;5029915;27;102071;-48
2021/08/30 03:18:58;;;;;;;12.03;10.87;;;;;;;22.49;74.13;100080.28;5034101;27;104391;-48
2021/08/30 03:21:26;;;;;;;12.02;10.93;;;;;;;22.49;73.88;100087.78;5033875;28;102110;-48
2021/08/30 03:23:55;;;;;;;11.75;10.65;;;;;;;22.49;73.98;100093.34;5032393;28;102197;-48
2021/08/30 03:26:25;;;;;;;11.88;10.68;;;;;;;22.49;73.75;100088.59;5032721;27;102830;-48
2021/08/30 03:28:53;;;;;;;11.02;9.93;;;;;;;22.49;73.88;100094.13;5028668;27;104126;-49
2021/08/30 03:31:20;;;;;;;11.10;10.10;;;;;;;22.49;73.88;100085.00;5030866;28;102161;-47
2021/08/30 03:33:49;;;;;;;10.77;9.68;;;;;;;22.49;73.80;100085.81;5030177;28;102251;-50
2021/08/30 03:36:16;;;;;;;12.07;10.82;;;;;;;22.49;73.75;100085.00;5031750;27;102919;-49
2021/08/30 03:38:43;;;;;;;12.02;10.82;;;;;;;22.49;73.99;100087.78;5028100;27;102727;-48
2021/08/30 03:41:11;;;;;;;10.60;9.60;;;;;;;22.49;73.97;100079.47;5012410;28;102506;-49
2021/08/30 03:43:40;;;;;;;11.80;10.63;;;;;;;22.48;73.87;100080.66;5032105;27;102095;-48
2021/08/30 03:46:07;;;;;;;10.75;9.65;;;;;;;22.48;73.86;100075.91;5027615;28;102712;-48
2021/08/30 03:48:34;;;;;;;12.77;9.77;;;;;;;22.50;73.88;100072.75;5016216;27;103856;-48
2021/08/30 03:51:03;;;;;;;11.63;10.43;;;;;;;22.49;74.00;100071.16;5026636;27;102717;-48
2021/08/30 03:53:34;;;;;;;11.07;10.15;;;;;;;22.50;73.90;100072.75;5031034;27;102393;-48
2021/08/30 03:56:03;;;;;;;11.68;10.48;;;;;;;22.48;74.02;100075.91;5031225;28;102298;-48
2021/08/30 03:58:32;;;;;;;11.27;10.18;;;;;;;22.48;73.93;100075.91;5028229;27;103265;-48
2021/08/30 04:01:04;;;;;;;11.80;10.70;;;;;;;22.49;73.77;100082.25;5031160;28;102648;-48
2021/08/30 04:03:34;;;;;;;11.13;10.13;;;;;;;22.48;73.62;100084.22;5025651;27;102729;-48
2021/08/30 04:06:02;;;;;;;12.50;11.20;;;;;;;22.50;73.77;100081.06;5030570;27;102394;-47
2021/08/30 04:08:30;;;;;;;12.00;10.80;;;;;;;22.49;74.01;100079.47;5022909;27;103961;-48
2021/08/30 04:10:58;;;;;;;11.93;10.73;;;;;;;22.48;73.90;100084.22;5028548;28;102613;-48
2021/08/30 04:13:25;;;;;;;12.57;11.27;;;;;;;22.49;73.88;100082.25;5020581;27;102505;-48
2021/08/30 04:15:53;;;;;;;12.53;11.23;;;;;;;22.48;73.99;100083.41;5030860;28;102462;-48
2021/08/30 04:18:21;;;;;;;11.60;10.40;;;;;;;22.49;73.78;100098.88;5021235;27;103107;-48
2021/08/30 04:20:48;;;;;;;10.93;9.93;;;;;;;22.48;74.00;100097.28;5029463;27;102005;-48
2021/08/30 04:23:15;;;;;;;11.98;10.82;;;;;;;22.48;73.99;100091.75;5028090;28;102557;-48
2021/08/30 04:25:42;;;;;;;11.50;10.40;;;;;;;22.49;73.99;100098.88;5029940;27;102233;-48
2021/08/30 04:28:09;;;;;;;11.50;10.30;;;;;;;22.47;73.97;100102.03;5026151;27;104195;-48
2021/08/30 04:30:36;;;;;;;12.45;11.15;;;;;;;22.48;73.80;100094.50;5028243;27;102442;-49
2021/08/30 04:33:06;;;;;;;11.90;10.55;;;;;;;22.49;73.97;100109.97;5025944;27;102826;-48
2021/08/30 04:35:35;;;;;;;13.07;10.98;;;;;;;22.49;73.89;100107.19;5029782;28;102111;-48
2021/08/30 04:38:02;;;;;;;12.15;10.88;;;;;;;22.49;74.02;100121.06;5027710;27;104216;-49
2021/08/30 04:40:28;;;;;;;11.70;10.60;;;;;;;22.49;73.98;100132.16;5010523;28;102324;-48
2021/08/30 04:42:55;;;;;;;12.02;10.88;;;;;;;22.48;74.00;100131.34;5027540;27;102827;-47
2021/08/30 04:45:22;;;;;;;10.75;9.73;;;;;;;22.48;73.98;100131.34;5028467;28;103092;-48
2021/08/30 04:47:50;;;;;;;12.15;10.07;;;;;;;22.50;73.89;100136.53;5022889;27;104347;-48
2021/08/30 04:50:17;;;;;;;11.40;10.30;;;;;;;22.49;74.01;100132.16;5024963;27;103001;-48
2021/08/30 04:52:45;;;;;;;11.05;10.02;;;;;;;22.49;73.96;100127.41;5025334;27;102907;-48
2021/08/30 04:55:12;;;;;;;10.77;9.67;;;;;;;22.49;73.99;100132.16;5024864;27;102488;-48
2021/08/30 04:57:38;;;;;;;11.32;10.32;;;;;;;22.49;73.71;100126.59;5025513;28;103916;-48
2021/08/30 05:00:07;;;;;;;10.85;9.85;;;;;;;22.50;73.77;100122.66;5023777;27;102933;-48
2021/08/30 05:02:33;;;;;;;11.15;10.05;;;;;;;22.49;73.96;100121.06;5022770;27;102474;-48
2021/08/30 05:05:00;;;;;;;10.63;9.63;;;;;;;22.51;73.97;100118.75;5025794;27;102930;-48
2021/08/30 05:07:27;;;;;;;10.38;9.45;;;;;;;22.50;73.92;100125.44;5009179;28;104035;-48
2021/08/30 05:09:55;;;;;;;10.57;9.57;;;;;;;22.49;73.93;100112.75;5028205;27;102232;-48
2021/08/30 05:12:25;;;;;;;10.70;9.70;;;;;;;22.50;73.75;100128.19;5020388;27;103467;-48
2021/08/30 05:14:52;;;;;;;10.60;9.57;;;;;;;22.50;74.07;100128.19;5028738;28;102594;-52
2021/08/30 05:17:19;;;;;;;11.20;10.10;;;;;;;22.51;73.86;100129.84;5029349;27;104210;-48
2021/08/30 05:19:45;;;;;;;11.68;10.15;;;;;;;22.50;73.95;100131.81;5030584;28;102638;-47
2021/08/30 05:22:23;;;;;;;11.43;10.40;;;;;;;22.51;73.89;100136.16;5028812;27;102148;-48
2021/08/30 05:24:50;;;;;;;11.40;10.30;;;;;;;22.51;73.89;100146.47;5028300;27;102167;-48
2021/08/30 05:27:18;;;;;;;11.38;10.27;;;;;;;22.51;74.09;100143.69;5028198;27;103890;-48
2021/08/30 05:29:45;;;;;;;11.18;10.07;;;;;;;22.52;74.06;100140.53;5023343;27;102194;-48
2021/08/30 05:32:12;;;;;;;12.13;10.77;;;;;;;22.51;73.76;100136.16;5021601;27;102068;-48
2021/08/30 05:34:38;;;;;;;11.30;10.05;;;;;;;22.53;73.65;100138.56;5026524;27;102609;-48
2021/08/30 05:37:05;;;;;;;11.93;10.73;;;;;;;22.53;73.77;100144.13;5023248;27;104032;-48
2021/08/30 05:39:33;;;;;;;11.60;10.40;;;;;;;22.53;73.71;100146.88;5027959;28;103354;-48
2021/08/30 05:41:59;;;;;;;11.85;10.65;;;;;;;22.53;73.63;100144.91;5024645;27;102165;-48
2021/08/30 05:44:27;;;;;;;12.73;11.43;;;;;;;22.54;73.62;100141.00;5028337;27;102244;-48
2021/08/30 05:46:54;;;;;;;12.30;11.20;;;;;;;22.55;73.85;100141.78;5022212;27;103855;-48
2021/08/30 05:49:21;;;;;;;11.20;10.10;;;;;;;22.55;73.58;100147.34;5023216;27;102465;-48
2021/08/30 05:51:48;;;;;;;9.57;8.68;;;;;;;22.57;73.56;100146.97;5025771;27;103208;-47
2021/08/30 05:54:14;;;;;;;9.35;8.55;;;;;;;22.59;73.48;100148.19;5025728;27;102485;-48
2021/08/30 05:56:41;;;;;;;9.68;8.68;;;;;;;22.61;73.45;100145.06;5026862;27;103850;-49
2021/08/30 05:59:07;;;;;;;9.82;8.88;;;;;;;22.61;73.46;100151.44;5020445;27;102537;-47
2021/08/30 06:01:37;;;;;;;10.38;9.48;;;;;;;22.64;73.65;100156.22;5019436;27;102309;-49
2021/08/30 06:04:05;;;;;;;9.68;8.77;;;;;;;22.64;73.59;100147.91;5026098;27;102582;-47
2021/08/30 06:06:31;;;;;;;9.73;8.82;;;;;;;22.66;73.37;100153.88;5025357;27;104092;-48
2021/08/30 06:08:58;;;;;;;8.85;7.95;;;;;;;22.66;73.35;100151.13;5022933;27;102161;-47
2021/08/30 06:11:24;;;;;;;9.40;8.57;;;;;;;22.66;73.44;100148.34;5025438;28;102351;-48
2021/08/30 06:13:51;;;;;;;9.45;8.65;;;;;;;22.68;73.55;100150.72;5030445;28;102178;-48
2021/08/30 06:16:18;;;;;;;8.82;8.02;;;;;;;22.69;73.48;100152.38;5025339;27;103748;-47
2021/08/30 06:18:46;;;;;;;9.60;8.80;;;;;;;22.70;73.30;100163.06;5027072;27;103162;-48
2021/08/30 06:21:13;;;;;;;9.27;8.37;;;;;;;22.70;73.26;100165.84;5018980;27;103518;-48
2021/08/30 06:23:39;;;;;;;10.07;9.18;;;;;;;22.71;73.41;100178.53;5029572;27;102738;-48
2021/08/30 06:26:06;;;;;;;9.73;8.82;;;;;;;22.72;73.38;100171.84;5024410;27;106632;-48
2021/08/30 06:28:32;;;;;;;10.45;9.55;;;;;;;22.72;73.34;100171.84;5029701;27;102974;-48
2021/08/30 06:30:58;;;;;;;11.23;10.13;;;;;;;22.73;73.30;100170.66;5027839;27;106222;-48
2021/08/30 06:33:25;;;;;;;10.73;9.82;;;;;;;22.74;73.34;100183.38;5028311;28;102485;-49
2021/08/30 06:35:53;;;;;;;10.35;9.45;;;;;;;22.74;73.27;100175.03;5025019;27;103821;-48
2021/08/30 06:38:21;;;;;;;11.40;9.53;;;;;;;22.75;73.44;100173.88;5029613;27;103519;-48
2021/08/30 06:40:47;;;;;;;10.35;9.43;;;;;;;22.76;73.40;100174.69;5026599;27;102804;-49
2021/08/30 06:43:14;;;;;;;10.93;9.63;;;;;;;22.76;73.38;100172.72;5033300;27;102541;-48
2021/08/30 06:45:42;;;;;;;10.30;9.30;;;;;;;22.77;73.32;100171.53;5028267;27;104226;-48
2021/08/30 06:48:09;;;;;;;10.23;9.23;;;;;;;22.77;73.37;100184.59;5027371;27;102443;-49
2021/08/30 06:50:36;;;;;;;10.15;9.25;;;;;;;22.78;73.41;100187.00;5027132;27;102449;-48
2021/08/30 06:53:04;;;;;;;10.82;9.82;;;;;;;22.79;73.27;100180.31;5026585;27;102598;-48
2021/08/30 06:55:31;;;;;;;10.88;9.88;;;;;;;22.80;73.07;100186.66;5027792;27;103879;-48
2021/08/30 06:57:57;;;;;;;10.07;9.15;;;;;;;22.81;73.32;100193.00;5028978;27;102269;-48
2021/08/30 07:00:25;;;;;;;9.70;8.82;;;;;;;22.82;73.27;100189.03;5023741;27;104839;-48
2021/08/30 07:02:54;;;;;;;11.13;10.13;;;;;;;22.82;73.29;100189.84;5029832;27;102469;-48
2021/08/30 07:05:20;;;;;;;10.80;9.80;;;;;;;22.84;73.00;100186.72;5027929;27;103604;-48
2021/08/30 07:07:47;;;;;;;9.93;9.02;;;;;;;22.83;73.39;100179.53;5028486;27;102589;-49
2021/08/30 07:10:15;;;;;;;9.65;8.85;;;;;;;22.84;73.29;100186.72;5028085;27;102663;-49
2021/08/30 07:12:42;;;;;;;11.57;9.97;;;;;;;22.85;73.21;100193.88;5030574;27;102449;-50
2021/08/30 07:15:09;;;;;;;9.68;8.77;;;;;;;22.86;73.21;100192.69;5026768;27;103858;-48
2021/08/30 07:17:36;;;;;;;9.43;8.60;;;;;;;22.87;73.24;100199.88;5026639;27;104788;-49
2021/08/30 07:20:04;;;;;;;9.00;8.18;;;;;;;22.87;73.06;100191.53;5023507;27;102709;-48
2021/08/30 07:22:31;;;;;;;9.30;8.50;;;;;;;22.88;73.28;100204.25;5005977;27;102668;-48
2021/08/30 07:24:58;;;;;;;8.73;7.97;;;;;;;22.89;73.23;100200.28;5023604;27;103956;-48
2021/08/30 07:27:26;;;;;;;9.32;8.48;;;;;;;22.90;73.38;100205.47;5025107;27;102346;-48
2021/08/30 07:29:53;;;;;;;8.25;7.55;;;;;;;22.90;73.32;100201.88;5024674;27;102488;-48
2021/08/30 07:32:20;;;;;;;9.18;8.32;;;;;;;22.91;73.25;100193.22;5027173;27;102543;-48
2021/08/30 07:34:47;;;;;;;8.55;7.78;;;;;;;22.93;73.17;100201.19;5027020;27;102790;-48
2021/08/30 07:37:14;;;;;;;9.30;8.50;;;;;;;22.93;73.08;100206.72;5026558;27;102547;-48
2021/08/30 07:39:41;;;;;;;8.85;8.02;;;;;;;22.94;73.19;100208.34;5023966;27;102486;-48
2021/08/30 07:42:07;;;;;;;9.02;8.23;;;;;;;22.95;73.29;100202.44;5026155;27;102905;-47
2021/08/30 07:44:36;;;;;;;8.88;8.13;;;;;;;22.96;73.19;100206.78;5028216;27;103872;-47
2021/08/30 07:47:04;;;;;;;9.68;8.77;;;;;;;22.96;73.11;100195.69;5025030;27;102307;-48
2021/08/30 07:49:30;;;;;;;8.88;8.07;;;;;;;22.97;73.12;100199.28;5025147;28;102490;-48
2021/08/30 07:51:57;;;;;;;9.52;8.63;;;;;;;22.97;73.00;100196.50;5029157;27;102695;-49
2021/08/30 07:54:24;;;;;;;9.15;8.35;;;;;;;22.97;73.26;100196.50;5027138;27;103852;-49
2021/08/30 07:56:51;;;;;;;8.88;8.07;;;;;;;22.99;72.97;100199.72;5042972;28;102468;-47
2021/08/30 07:59:19;;;;;;;10.13;9.10;;;;;;;23.00;73.13;100201.31;5042258;27;102012;-48
2021/08/30 08:01:47;;;;;;;9.40;8.50;;;;;;;23.01;73.16;100200.16;5042607;27;102147;-48
2021/08/30 08:04:13;;;;;;;9.43;8.63;;;;;;;23.01;73.04;100202.94;5041716;27;103049;-48
2021/08/30 08:06:40;;;;;;;9.23;8.43;;;;;;;23.01;72.83;100203.75;5033915;27;102214;-48
2021/08/30 08:09:07;;;;;;;9.50;8.73;;;;;;;23.02;73.02;100194.22;5030955;27;102508;-49
2021/08/30 08:11:34;;;;;;;10.10;9.20;;;;;;;23.02;73.08;100208.13;5027625;27;102525;-48
2021/08/30 08:14:00;;;;;;;9.85;9.02;;;;;;;23.04;72.94;100204.97;5008837;28;103063;-48
2021/08/30 08:16:34;;;;;;;9.82;8.82;;;;;;;23.04;72.92;100204.97;5026143;27;102785;-50
2021/08/30 08:19:02;;;;;;;9.55;8.75;;;;;;;23.05;73.32;100205.78;5033129;27;102664;-48
2021/08/30 08:21:30;;;;;;;9.73;8.93;;;;;;;23.05;73.01;100208.56;5023943;27;102475;-48
2021/08/30 08:23:57;;;;;;;9.38;8.57;;;;;;;23.05;72.81;100191.91;5027437;27;103886;-48
2021/08/30 08:26:23;;;;;;;9.38;8.55;;;;;;;23.06;72.89;100205.41;5021282;27;102428;-49
2021/08/30 08:28:50;;;;;;;9.40;8.55;;;;;;;23.07;72.99;100200.66;5024410;28;105436;-48
2021/08/30 08:31:17;;;;;;;9.75;8.85;;;;;;;23.06;73.02;100205.41;5028439;27;102710;-48
2021/08/30 08:33:44;;;;;;;9.30;8.50;;;;;;;23.08;72.85;100196.69;5027234;27;103055;-49
2021/08/30 08:36:13;;;;;;;9.30;8.50;;;;;;;23.07;73.12;100201.44;5027863;27;102229;-49
2021/08/30 08:38:39;;;;;;;8.63;7.93;;;;;;;23.08;73.15;100211.41;5028082;27;102602;-50
2021/08/30 08:41:06;;;;;;;9.38;8.57;;;;;;;23.09;73.08;100204.66;5021672;27;102793;-48
2021/08/30 08:43:33;;;;;;;10.00;9.13;;;;;;;23.10;73.04;100211.03;5022294;27;103898;-48
2021/08/30 08:46:01;;;;;;;9.32;8.50;;;;;;;23.10;73.03;100211.81;5022306;27;102292;-49
2021/08/30 08:48:27;;;;;;;9.85;8.95;;;;;;;23.10;73.05;100197.94;5022561;27;102066;-48
2021/08/30 08:50:54;;;;;;;9.07;8.27;;;;;;;23.11;73.04;100196.75;5028115;27;102166;-49
2021/08/30 08:53:22;;;;;;;9.57;8.73;;;;;;;23.12;73.00;100209.50;5024781;27;104186;-49
2021/08/30 08:55:49;;;;;;;13.13;8.65;;;;;;;23.12;73.00;100208.69;5026751;27;102336;-48
2021/08/30 08:58:17;;;;;;;9.48;8.68;;;;;;;23.11;72.74;100202.31;5027619;28;102716;-49
2021/08/30 09:00:58;;;;;;;9.50;8.65;;;;;;;23.12;72.85;100209.50;5029932;27;103379;-49
2021/08/30 09:03:24;;;;;;;9.48;8.68;;;;;;;23.13;72.96;100205.53;5028107;27;104082;-49
2021/08/30 09:06:00;;;;;;;9.25;8.45;;;;;;;23.13;73.09;100205.53;5028576;27;102422;-49
2021/08/30 09:08:32;;;;;;;10.10;9.20;;;;;;;23.14;73.07;100212.69;5028880;27;102127;-48
2021/08/30 09:11:00;;;;;;;9.73;8.82;;;;;;;23.14;72.76;100204.34;5026163;28;102547;-48
2021/08/30 09:13:28;;;;;;;10.07;9.13;;;;;;;23.14;72.86;100196.03;5023476;27;104272;-49
2021/08/30 09:15:55;;;;;;;10.50;9.50;;;;;;;23.15;73.00;100203.22;5026908;28;102161;-49
2021/08/30 09:18:28;;;;;;;9.53;8.63;;;;;;;23.15;72.98;100208.75;5028118;28;102168;-48
2021/08/30 09:20:55;;;;;;;9.55;8.65;;;;;;;23.15;72.95;100200.44;5028763;27;102365;-50
2021/08/30 09:23:28;;;;;;;9.93;9.02;;;;;;;23.16;73.04;100198.44;5026227;28;103955;-49
2021/08/30 09:26:00;;;;;;;10.10;9.10;;;;;;;23.16;73.13;100204.81;5028423;27;102368;-48
2021/08/30 09:28:28;;;;;;;9.65;8.75;;;;;;;23.16;72.94;100204.00;5024556;27;102403;-50
2021/08/30 09:30:57;;;;;;;8.93;8.13;;;;;;;23.16;72.94;100190.91;5029623;28;102132;-49
2021/08/30 09:33:24;;;;;;;10.23;9.35;;;;;;;23.16;73.04;100199.25;5019124;28;103964;-48
2021/08/30 09:35:56;;;;;;;9.70;8.80;;;;;;;23.16;72.76;100210.34;5028036;27;102126;-48
2021/08/30 09:38:23;;;;;;;9.75;8.77;;;;;;;23.16;72.94;100213.13;5027510;27;102960;-49
2021/08/30 09:40:50;;;;;;;9.43;8.63;;;;;;;23.16;72.93;100196.47;5018769;28;102817;-48
2021/08/30 09:43:21;;;;;;;9.40;8.57;;;;;;;23.18;73.08;100212.75;5029076;27;104043;-48
2021/08/30 09:45:47;;;;;;;9.55;8.75;;;;;;;23.18;73.07;100208.00;5018862;28;102432;-48
2021/08/30 09:48:24;;;;;;;9.50;8.70;;;;;;;23.18;73.01;100201.63;5021570;27;102559;-48
2021/08/30 09:50:51;;;;;;;8.80;8.00;;;;;;;23.18;72.71;100213.53;5018155;28;103660;-49
2021/08/30 09:53:18;;;;;;;9.45;8.65;;;;;;;23.18;72.76;100212.75;5024006;28;103590;-49
2021/08/30 09:55:45;;;;;;;9.15;8.35;;;;;;;23.17;73.03;100203.63;5022733;27;102383;-48
2021/08/30 09:58:16;;;;;;;10.18;9.18;;;;;;;23.18;73.02;100209.97;5025816;28;102795;-49
2021/08/30 10:00:46;;;;;;;10.18;9.27;;;;;;;23.17;72.85;100206.41;5028438;27;102716;-49
2021/08/30 10:03:16;;;;;;;9.98;9.10;;;;;;;23.18;73.01;100212.75;5023216;28;103300;-49
2021/08/30 10:05:43;;;;;;;10.18;9.00;;;;;;;23.18;72.89;100208.00;5024750;27;102407;-48
2021/08/30 10:08:10;;;;;;;10.73;9.73;;;;;;;23.18;72.79;100201.63;5027637;27;102177;-49
2021/08/30 10:10:36;;;;;;;10.13;9.23;;;;;;;23.16;72.86;100210.34;5029809;27;102502;-49
2021/08/30 10:13:06;;;;;;;9.80;8.90;;;;;;;23.18;72.94;100218.31;5027404;27;103904;-48
2021/08/30 10:15:34;;;;;;;10.27;9.32;;;;;;;23.17;72.86;100206.41;5027773;28;103845;-49
2021/08/30 10:18:10;;;;;;;10.75;9.65;;;;;;;23.17;73.03;100217.50;5017468;27;101990;-48
2021/08/30 10:20:41;;;;;;;10.40;9.43;;;;;;;23.16;72.83;100213.13;5029928;28;102098;-48
2021/08/30 10:23:10;;;;;;;10.30;9.30;;;;;;;23.17;72.96;100214.72;5026158;28;103938;-49
2021/08/30 10:25:38;;;;;;;10.50;9.50;;;;;;;23.17;72.92;100217.50;5027534;27;102342;-48
2021/08/30 10:28:07;;;;;;;10.13;9.23;;;;;;;23.17;72.90;100211.94;5027203;28;101946;-48
2021/08/30 10:30:38;;;;;;;10.32;9.43;;;;;;;23.17;72.96;100217.50;5030978;27;102774;-48
2021/08/30 10:33:07;;;;;;;10.85;9.85;;;;;;;23.18;73.03;100207.19;5027374;27;103850;-48
2021/08/30 10:35:36;;;;;;;10.68;9.68;;;;;;;23.17;72.82;100217.50;5026154;28;102558;-49
2021/08/30 10:38:04;;;;;;;10.77;9.88;;;;;;;23.17;72.96;100220.28;5024501;27;102357;-48
2021/08/30 10:40:32;;;;;;;10.55;9.57;;;;;;;23.16;72.82;100224.22;5023662;27;102539;-48
2021/08/30 10:43:08;;;;;;;10.57;9.55;;;;;;;23.16;72.80;100227.00;5013022;27;104056;-48
2021/08/30 10:45:41;;;;;;;10.70;9.73;;;;;;;23.16;72.83;100227.00;5019472;28;102386;-49
2021/08/30 10:48:12;;;;;;;11.05;10.10;;;;;;;23.15;72.96;100222.63;5024909;27;102365;-48
2021/08/30 10:50:41;;;;;;;10.57;9.57;;;;;;;23.16;72.94;100227.00;5012387;28;102408;-49
2021/08/30 10:53:15;;;;;;;10.40;9.43;;;;;;;23.15;72.88;100225.41;5016622;28;104091;-48
2021/08/30 10:55:43;;;;;;;10.80;9.70;;;;;;;23.15;72.92;100217.09;5024502;28;102018;-48
2021/08/30 10:58:17;;;;;;;;;;;;;;;23.15;72.69;100219.84;5016469;27;102670;-49
2021/08/30 11:00:45;;;;;;;11.50;10.40;;;;;;;23.14;72.82;100223.78;5029034;28;102133;-48
2021/08/30 11:03:24;;;;;;;10.90;9.90;;;;;;;23.15;73.06;100214.31;5021951;27;104006;-49
2021/08/30 11:06:03;;;;;;;10.27;9.32;;;;;;;23.14;72.78;100209.09;5028756;28;102468;-48
2021/08/30 11:08:30;;;;;;;10.68;9.68;;;;;;;23.14;72.86;100201.56;5025544;28;102146;-48
2021/08/30 11:11:08;;;;;;;10.63;9.73;;;;;;;23.13;73.05;100205.53;5022852;27;102234;-48
2021/08/30 11:13:35;;;;;;;11.47;10.47;;;;;;;23.13;72.80;100208.31;5026298;28;103865;-48
2021/08/30 11:16:02;;;;;;;10.85;9.82;;;;;;;23.14;72.88;100203.56;5032957;27;102182;-51
2021/08/30 11:18:30;;;;;;;10.55;9.65;;;;;;;23.13;72.60;100208.31;5028977;27;102476;-49